ROMMA est une association bénévole à but non lucratif. Votre soutien est indispensable : ADHERER à ROMMA ou FAIRE un DON

Taninges - (74, Haute-Savoie)

Vallée du Giffre (635 m)   Longitude: 06° 35' 38" E   Latitude: 46° 06' 21" N Station romma n°98
 

Détail journalier du     <<     >>

Température Humidité Pression Vent Dir Rafale Dir. rafale Ensol.
Heure (°C) (%) (hPa) (km/h) (km/h) (min)
01:00 15.69410221SSE5NE0
02:00 15.79410221ENE3ENE0
03:00 15.494102103ENE0
04:00 15.894102103ENE0
05:00 15.494102103ENE0
06:00 15.49510212NO5NO0
07:00 15.49510212O6NO0
08:00 15.49510212O5ONO0
09:00 16.29110211O5O5
10:00 17.29010215OSO11OSO15
11:00 17.68710219OSO18OSO0
12:00 19.38310209OSO18OSO60
13:00 20.481102011OSO21SO60
14:00 21.081101912SO24OSO60
15:00 21.478101911SO24SO60
16:00 21.678101911SO23OSO60
17:00 21.677101910SO21OSO60
18:00 21.177101910OSO21SO60
19:00 20.47810197OSO18OSO55
20:00 19.18010194OSO11OSO0
21:00 17.68610201SO5ONO0
22:00 16.28910201ENE6NE0
23:00 15.891102003NE0
minuit 15.88710191NE8NE0

Graphique du 23-08-2019

 

Serveur OMMA